Time;durP1;ratioP1;P1;durP2;ratioP2;P2;SDS_P1;SDS_P2;PMS_P1;PMS_P2;Temp;Humidity;BMP_temperature;BMP_pressure;BME280_temperature;BME280_humidity;BME280_pressure;Samples;Min_cycle;Max_cycle;Signal;HPM_P1;HPM_P2
2022/10/07 00:01:15;;;;;;;9.57;5.87;;;8.60;99.90;;;;;;2616912;31;20792;-71
2022/10/07 00:07:03;;;;;;;10.30;5.10;;;8.80;99.90;;;;;;2614397;46;20409;-72
2022/10/07 00:12:50;;;;;;;8.80;5.90;;;8.40;99.90;;;;;;2615546;54;20161;-73
2022/10/07 00:18:40;;;;;;;12.00;4.77;;;8.10;99.90;;;;;;2614544;54;20169;-71
2022/10/07 00:24:27;;;;;;;11.07;4.80;;;8.10;99.90;;;;;;2615052;54;20230;-73
2022/10/07 00:30:16;;;;;;;10.40;5.37;;;8.60;99.90;;;;;;2615205;54;21006;-71
2022/10/07 00:36:08;;;;;;;8.30;5.10;;;8.40;99.90;;;;;;2614691;54;20137;-72
2022/10/07 00:39:19;;;;;;;12.35;4.70;;;8.50;99.90;;;;;;2614417;47;20976;-73
2022/10/07 00:41:51;;;;;;;16.37;5.37;;;8.40;99.90;;;;;;2614615;54;20175;-74
2022/10/07 00:47:40;;;;;;;10.90;4.70;;;8.40;99.90;;;;;;2615515;54;20487;-72
2022/10/07 00:53:32;;;;;;;6.33;4.93;;;8.20;99.90;;;;;;2612892;54;20464;-72
2022/10/07 00:59:20;;;;;;;7.30;4.87;;;8.80;99.90;;;;;;2615165;54;20382;-73
2022/10/07 01:05:09;;;;;;;8.63;5.10;;;8.50;99.90;;;;;;2614557;54;20394;-71
2022/10/07 01:10:57;;;;;;;8.03;4.27;;;8.60;99.90;;;;;;2612108;54;20438;-72
2022/10/07 01:29:40;;;;;;;7.57;5.10;;;8.80;99.90;;;;;;2618245;54;20390;-79
2022/10/07 01:35:34;;;;;;;11.20;6.87;;;8.80;99.90;;;;;;2616898;54;20404;-78
2022/10/07 01:41:23;;;;;;;8.20;5.45;;;8.80;99.90;;;;;;2616114;54;20371;-78
2022/10/07 01:47:10;;;;;;;7.60;5.35;;;8.90;99.90;;;;;;2616262;54;20458;-77
2022/10/07 01:59:35;;;;;;;11.00;6.40;;;8.90;99.90;;;;;;2615545;54;20378;-79
2022/10/07 02:22:57;;;;;;;9.43;5.47;;;9.00;99.90;;;;;;2615842;54;20385;-78
2022/10/07 02:32:12;;;;;;;5.63;4.77;;;9.00;99.90;;;;;;2617583;39;20813;-78
2022/10/07 02:38:06;;;;;;;10.30;5.10;;;9.00;99.90;;;;;;2617232;54;20423;-77
2022/10/07 02:44:00;;;;;;;9.43;5.90;;;8.90;99.90;;;;;;2617238;39;20810;-78
2022/10/07 02:49:54;;;;;;;9.67;5.33;;;8.90;99.90;;;;;;2616317;54;20353;-78
2022/10/07 02:55:42;;;;;;;10.03;6.80;;;9.20;99.90;;;;;;2615487;54;20459;-77
2022/10/07 03:01:32;;;;;;;10.00;4.67;;;9.20;99.90;;;;;;2614782;54;20728;-77
2022/10/07 03:10:41;;;;;;;11.80;5.73;;;9.40;99.90;;;;;;2613851;54;20365;-78
2022/10/07 03:16:28;;;;;;;8.10;5.27;;;9.20;99.90;;;;;;2615565;39;20610;-77
2022/10/07 03:22:16;;;;;;;14.93;5.57;;;8.90;99.90;;;;;;2614548;54;20125;-77
2022/10/07 03:32:10;;;;;;;10.33;6.30;;;8.90;99.90;;;;;;2616034;54;20415;-79
2022/10/07 03:37:58;;;;;;;7.13;5.20;;;8.60;99.90;;;;;;2615881;54;20986;-78
2022/10/07 03:43:46;;;;;;;4.97;4.47;;;8.50;99.90;;;;;;2615423;54;20130;-77
2022/10/07 03:49:34;;;;;;;6.95;4.38;;;8.40;99.90;;;;;;2616382;39;20529;-79
2022/10/07 03:55:22;;;;;;;8.98;4.60;;;8.20;99.90;;;;;;2618373;54;20421;-79
2022/10/07 04:01:13;;;;;;;5.17;4.33;;;8.30;99.90;;;;;;2615105;54;20688;-80
2022/10/07 04:07:01;;;;;;;11.80;5.73;;;8.10;99.90;;;;;;2616134;54;20394;-81
2022/10/07 04:12:52;;;;;;;10.87;4.80;;;7.90;99.90;;;;;;2615829;54;20121;-79
2022/10/07 04:18:40;;;;;;;9.32;5.30;;;7.90;99.90;;;;;;2615412;54;20134;-79
2022/10/07 04:24:28;;;;;;;15.50;5.10;;;8.00;99.90;;;;;;2616332;54;20127;-78
2022/10/07 04:27:38;;;;;;;7.20;5.40;;;7.90;99.90;;;;;;2615239;54;20418;-78
2022/10/07 04:30:05;;;;;;;8.10;5.80;;;8.20;99.90;;;;;;2616501;54;20155;-78
2022/10/07 04:35:54;;;;;;;10.40;6.43;;;8.20;99.90;;;;;;2615468;54;20150;-79
2022/10/07 04:41:42;;;;;;;7.97;5.07;;;8.40;99.90;;;;;;2615022;54;20930;-79
2022/10/07 04:47:29;;;;;;;10.83;5.27;;;8.30;99.90;;;;;;2617801;54;20371;-79
2022/10/07 04:53:18;;;;;;;6.90;4.70;;;8.40;99.90;;;;;;2617770;54;20125;-79
2022/10/07 04:59:06;;;;;;;8.70;5.30;;;8.30;99.90;;;;;;2616814;54;20374;-78
2022/10/07 05:04:54;;;;;;;14.20;5.00;;;8.40;99.90;;;;;;2617890;39;20592;-79
2022/10/07 05:10:42;;;;;;;18.50;5.23;;;8.60;99.90;;;;;;2617185;54;20226;-79
2022/10/07 05:16:30;;;;;;;14.77;4.83;;;8.50;99.90;;;;;;2617343;39;20458;-79
2022/10/07 05:22:17;;;;;;;5.53;3.83;;;8.60;99.90;;;;;;2616402;39;20551;-77
2022/10/07 05:32:10;;;;;;;11.50;4.68;;;8.20;99.90;;;;;;2615989;54;20410;-77
2022/10/07 05:37:58;;;;;;;12.53;5.17;;;8.40;99.90;;;;;;2615568;54;20409;-79
2022/10/07 05:43:47;;;;;;;9.63;4.50;;;8.10;99.90;;;;;;2612189;54;20394;-78
2022/10/07 05:52:56;;;;;;;9.80;4.90;;;8.30;99.90;;;;;;2614299;54;20398;-76
2022/10/07 05:58:44;;;;;;;13.07;5.40;;;8.60;99.90;;;;;;2614173;54;20910;-78
2022/10/07 06:04:32;;;;;;;9.60;5.23;;;8.70;99.90;;;;;;2613801;54;20973;-80
2022/10/07 06:16:27;;;;;;;11.93;5.40;;;9.00;99.90;;;;;;2612256;54;20133;-77
2022/10/07 06:22:14;;;;;;;8.80;5.00;;;9.20;99.90;;;;;;2614738;54;20405;-77
2022/10/07 06:32:11;;;;;;;8.93;4.40;;;9.40;99.90;;;;;;2614798;54;20430;-75
2022/10/07 06:37:59;;;;;;;14.73;4.23;;;9.60;99.90;;;;;;2614430;54;20439;-75
2022/10/07 06:43:48;;;;;;;7.60;4.50;;;10.00;99.90;;;;;;2615430;54;20402;-75
2022/10/07 06:49:35;;;;;;;5.30;3.97;;;10.10;99.90;;;;;;2614464;54;20526;-75
2022/10/07 06:55:25;;;;;;;10.23;5.10;;;11.30;99.90;;;;;;2614071;54;20165;-79
2022/10/07 07:01:13;;;;;;;8.13;4.87;;;12.40;99.90;;;;;;2612763;54;20355;-78
2022/10/07 07:07:01;;;;;;;12.30;4.83;;;13.00;99.90;;;;;;2615613;54;20145;-78
2022/10/07 07:12:52;;;;;;;5.87;4.30;;;13.50;99.90;;;;;;2614011;39;20527;-77
2022/10/07 07:18:39;;;;;;;12.47;4.83;;;13.80;99.90;;;;;;2615152;54;20400;-77
2022/10/07 07:24:27;;;;;;;5.22;4.45;;;14.30;93.70;;;;;;2616240;54;20947;-77
2022/10/07 07:27:40;;;;;;;12.20;5.80;;;14.10;89.40;;;;;;2616383;54;20139;-78
2022/10/07 07:30:06;;;;;;;7.47;5.17;;;14.00;91.30;;;;;;2615954;54;20158;-78
2022/10/07 07:35:56;;;;;;;10.93;5.67;;;14.50;86.80;;;;;;2616314;39;20765;-81
2022/10/07 07:41:46;;;;;;;7.73;5.70;;;14.90;82.90;;;;;;2615290;54;20439;-78
2022/10/07 07:47:34;;;;;;;11.40;5.63;;;15.30;71.80;;;;;;2613175;54;20508;-80
2022/10/07 07:50:02;;;;;;;6.90;4.30;;;14.90;73.90;;;;;;2631507;36;20478;-76
2022/10/07 07:52:27;;;;;;;10.63;4.93;;;15.20;68.00;;;;;;2614814;47;20469;-75
2022/10/07 07:58:16;;;;;;;16.33;5.20;;;15.70;65.60;;;;;;2615298;54;20155;-76
2022/10/07 08:04:04;;;;;;;9.67;4.93;;;16.60;51.30;;;;;;2614853;54;20401;-75
2022/10/07 08:09:52;;;;;;;10.47;5.50;;;16.60;49.50;;;;;;2615226;54;20130;-76
2022/10/07 08:15:40;;;;;;;11.13;5.30;;;17.20;40.60;;;;;;2614827;54;20255;-79
2022/10/07 08:21:31;;;;;;;11.77;6.40;;;16.80;47.20;;;;;;2615069;39;20675;-76
2022/10/07 08:27:19;;;;;;;13.03;5.93;;;17.50;41.40;;;;;;2615212;54;20420;-75
2022/10/07 08:33:07;;;;;;;7.53;5.90;;;17.00;41.90;;;;;;2613346;54;20255;-75
2022/10/07 08:38:55;;;;;;;9.33;5.70;;;17.60;40.20;;;;;;2615995;54;20161;-75
2022/10/07 08:44:47;;;;;;;5.80;5.20;;;19.10;32.90;;;;;;2613336;54;20947;-77
2022/10/07 08:50:56;;;;;;;8.77;4.47;;;18.80;29.30;;;;;;2617518;54;20371;-78
2022/10/07 08:56:47;;;;;;;8.50;4.40;;;18.40;30.00;;;;;;2617742;54;20393;-80
2022/10/07 09:16:18;;;;;;;5.63;4.93;;;18.10;35.50;;;;;;2615925;39;20552;-78
2022/10/07 09:32:17;;;;;;;10.77;5.07;;;18.60;30.00;;;;;;2616698;54;20429;-83
2022/10/07 09:38:09;;;;;;;7.73;4.27;;;19.40;26.70;;;;;;2619463;54;20392;-81
2022/10/07 09:44:15;;;;;;;11.87;4.70;;;19.60;27.50;;;;;;2617050;54;20383;-82
2022/10/07 09:50:03;;;;;;;12.10;4.37;;;18.90;25.70;;;;;;2617916;54;20387;-81
2022/10/07 09:55:54;;;;;;;11.13;5.27;;;19.20;27.70;;;;;;2618284;39;20802;-83
2022/10/07 10:01:47;;;;;;;9.13;4.37;;;19.80;25.40;;;;;;2616882;54;20399;-83
2022/10/07 10:07:36;;;;;;;10.97;4.77;;;20.40;26.80;;;;;;2618639;54;20390;-82
2022/10/07 10:13:30;;;;;;;12.30;5.40;;;20.00;23.30;;;;;;2618242;54;20387;-83
2022/10/07 10:19:38;;;;;;;6.67;4.00;;;20.20;24.30;;;;;;2618537;54;20360;-81
2022/10/07 10:35:39;;;;;;;10.23;5.20;;;20.00;21.60;;;;;;2616742;54;20190;-83
2022/10/07 10:54:29;;;;;;;8.23;4.50;;;19.80;21.90;;;;;;2616959;54;20946;-81
2022/10/07 11:00:21;;;;;;;9.00;5.10;;;18.20;23.40;;;;;;2617817;54;20961;-83
2022/10/07 11:06:12;;;;;;;13.30;4.80;;;19.50;22.60;;;;;;2618485;54;20480;-82
2022/10/07 11:12:04;;;;;;;11.13;5.83;;;20.50;21.40;;;;;;2618229;54;20391;-83
2022/10/07 11:17:55;;;;;;;6.77;4.13;;;19.80;23.20;;;;;;2615835;54;20428;-79
2022/10/07 11:34:34;;;;;;;6.53;4.45;;;20.80;20.40;;;;;;2618779;54;20379;-84
2022/10/07 11:40:25;;;;;;;9.80;5.37;;;20.60;20.00;;;;;;2616726;54;20990;-84
2022/10/07 11:52:50;;;;;;;14.63;5.38;;;21.10;21.10;;;;;;2616982;54;20395;-83
2022/10/07 11:58:38;;;;;;;12.10;5.57;;;20.60;21.80;;;;;;2619216;54;20429;-83
2022/10/07 12:04:35;;;;;;;14.97;5.60;;;21.00;19.70;;;;;;2617949;54;20523;-78
2022/10/07 12:10:29;;;;;;;6.17;4.93;;;21.00;20.90;;;;;;2618668;54;20408;-84
2022/10/07 12:16:23;;;;;;;13.70;5.40;;;19.70;24.00;;;;;;2618356;54;20387;-79
2022/10/07 12:22:14;;;;;;;11.50;5.57;;;21.30;20.70;;;;;;2617087;54;20386;-79
2022/10/07 12:28:02;;;;;;;11.13;5.40;;;20.20;24.60;;;;;;2618401;54;20354;-78
2022/10/07 12:50:49;;;;;;;10.67;5.10;;;20.20;22.40;;;;;;2616428;54;20379;-80
2022/10/07 12:56:36;;;;;;;10.60;5.13;;;20.90;23.40;;;;;;2616272;39;20545;-78
2022/10/07 13:02:35;;;;;;;9.60;4.80;;;22.20;20.00;;;;;;2613048;54;20165;-78
2022/10/07 13:12:55;;;;;;;9.97;5.23;;;21.20;19.70;;;;;;2614111;54;20394;-78
2022/10/07 13:24:59;;;;;;;5.83;4.40;;;21.60;18.50;;;;;;2613299;54;20408;-79
2022/10/07 13:30:48;;;;;;;13.03;5.80;;;22.20;15.80;;;;;;2615269;39;20779;-78
2022/10/07 13:36:42;;;;;;;13.20;5.50;;;22.90;15.50;;;;;;2614698;54;20351;-77
2022/10/07 13:42:29;;;;;;;10.27;5.10;;;21.30;16.10;;;;;;2614614;54;20420;-78
2022/10/07 13:48:24;;;;;;;7.68;5.18;;;22.30;15.90;;;;;;2615788;39;20735;-78
2022/10/07 13:54:22;;;;;;;15.27;6.60;;;22.20;15.20;;;;;;2617324;54;20418;-78
2022/10/07 14:00:12;;;;;;;8.70;4.37;;;22.50;16.20;;;;;;2615196;54;20383;-79
2022/10/07 14:06:00;;;;;;;13.23;5.00;;;23.10;13.20;;;;;;2615687;46;20405;-80
2022/10/07 14:11:54;;;;;;;9.77;4.78;;;22.90;12.80;;;;;;2616888;54;20138;-80
2022/10/07 14:17:47;;;;;;;6.73;4.80;;;23.40;11.90;;;;;;2616771;39;20787;-79
2022/10/07 14:23:36;;;;;;;9.57;4.27;;;22.90;12.20;;;;;;2616882;54;20427;-80
2022/10/07 14:29:27;;;;;;;6.90;4.50;;;22.50;12.60;;;;;;2616404;54;20440;-77
2022/10/07 14:38:36;;;;;;;12.63;4.85;;;23.40;12.70;;;;;;2617083;39;20783;-78
2022/10/07 14:44:24;;;;;;;10.60;4.33;;;23.10;13.50;;;;;;2616536;54;20423;-77
2022/10/07 14:50:12;;;;;;;7.53;4.22;;;23.30;12.30;;;;;;2616591;54;20419;-78
2022/10/07 14:56:00;;;;;;;7.90;4.37;;;23.50;14.30;;;;;;2616320;39;21019;-77
2022/10/07 15:01:48;;;;;;;12.33;5.80;;;22.10;13.70;;;;;;2616365;46;20150;-78
2022/10/07 15:07:36;;;;;;;17.70;5.27;;;22.20;13.90;;;;;;2617190;54;20913;-79
2022/10/07 15:13:24;;;;;;;7.33;4.67;;;21.50;14.10;;;;;;2616009;54;20652;-77
2022/10/07 15:19:14;;;;;;;7.10;4.50;;;21.60;14.60;;;;;;2619297;54;20402;-81
2022/10/07 15:25:05;;;;;;;8.87;4.37;;;20.60;15.20;;;;;;2616268;54;20112;-81
2022/10/07 15:28:08;;;;;;;12.93;5.40;;;21.40;13.70;;;;;;2615373;54;20944;-79
2022/10/07 15:30:34;;;;;;;11.10;5.47;;;22.20;13.70;;;;;;2615761;54;20423;-78
2022/10/07 15:36:23;;;;;;;9.43;5.30;;;21.60;13.20;;;;;;2616086;54;20271;-77
2022/10/07 15:42:11;;;;;;;13.82;4.55;;;21.40;13.80;;;;;;2615844;54;20367;-77
2022/10/07 15:47:59;;;;;;;5.67;4.53;;;20.40;15.50;;;;;;2615523;39;20482;-78
2022/10/07 15:53:49;;;;;;;11.83;4.70;;;20.00;16.10;;;;;;2616172;54;20163;-76
2022/10/07 15:59:37;;;;;;;10.30;5.40;;;19.80;17.40;;;;;;2615925;54;20365;-78
2022/10/07 16:05:25;;;;;;;10.27;5.43;;;19.60;17.40;;;;;;2616326;54;20131;-78
2022/10/07 16:11:13;;;;;;;9.80;6.10;;;19.20;18.80;;;;;;2615461;54;20162;-79
2022/10/07 16:17:01;;;;;;;10.40;5.67;;;19.20;19.60;;;;;;2616929;39;20723;-78
2022/10/07 16:22:49;;;;;;;12.30;5.93;;;18.60;21.50;;;;;;2613030;54;20384;-79
2022/10/07 16:38:41;;;;;;;10.70;7.00;;;17.30;29.80;;;;;;2616375;54;20497;-79
2022/10/07 16:44:29;;;;;;;14.90;7.07;;;16.50;36.10;;;;;;2616596;31;20867;-77
2022/10/07 16:50:17;;;;;;;8.73;7.13;;;16.10;47.70;;;;;;2616380;54;20122;-77
2022/10/07 16:56:06;;;;;;;10.60;6.70;;;15.70;63.20;;;;;;2617293;54;20122;-78
2022/10/07 17:01:58;;;;;;;13.70;6.90;;;15.30;83.20;;;;;;2617832;54;20414;-79
2022/10/07 17:07:47;;;;;;;19.07;6.93;;;14.90;94.40;;;;;;2617344;54;20427;-79
2022/10/07 17:13:36;;;;;;;16.40;9.45;;;14.50;99.90;;;;;;2616676;54;20366;-77
2022/10/07 17:19:26;;;;;;;16.27;7.30;;;14.20;99.90;;;;;;2616454;54;20515;-79
2022/10/07 17:25:14;;;;;;;7.28;6.07;;;14.00;99.90;;;;;;2616110;54;20603;-75
2022/10/07 17:34:10;;;;;;;11.83;7.23;;;13.50;99.90;;;;;;2616697;46;20477;-76
2022/10/07 17:36:36;;;;;;;13.52;6.90;;;13.40;99.90;;;;;;2615539;47;20403;-76
2022/10/07 17:42:24;;;;;;;10.80;6.80;;;13.00;99.90;;;;;;2615353;54;20893;-76
2022/10/07 17:48:12;;;;;;;9.83;6.17;;;12.90;99.90;;;;;;2616157;54;20134;-78
2022/10/07 17:54:03;;;;;;;9.90;6.43;;;12.60;99.90;;;;;;2615120;54;20230;-78
2022/10/07 17:59:51;;;;;;;14.80;8.20;;;12.60;99.90;;;;;;2616626;54;20502;-77
2022/10/07 18:18:01;;;;;;;27.90;18.67;;;12.10;99.90;;;;;;2615945;54;20399;-78
2022/10/07 18:23:50;;;;;;;28.23;18.17;;;12.00;99.90;;;;;;2615176;39;20762;-77
2022/10/07 18:29:37;;;;;;;17.53;13.07;;;11.80;99.90;;;;;;2614779;54;20395;-77
2022/10/07 18:38:56;;;;;;;15.00;8.73;;;11.70;99.90;;;;;;2616143;54;20403;-77
2022/10/07 18:44:44;;;;;;;16.83;8.93;;;11.60;99.90;;;;;;2617154;39;20755;-78
2022/10/07 18:50:32;;;;;;;11.90;8.30;;;11.50;99.90;;;;;;2616235;54;20142;-78
2022/10/07 18:56:23;;;;;;;13.33;7.90;;;11.30;99.90;;;;;;2615188;39;20761;-77
2022/10/07 19:02:11;;;;;;;22.67;9.83;;;11.20;99.90;;;;;;2614838;54;20399;-77
2022/10/07 19:07:58;;;;;;;16.37;9.60;;;11.00;99.90;;;;;;2616211;54;20194;-77
2022/10/07 19:13:52;;;;;;;17.08;9.85;;;11.00;99.90;;;;;;2616738;54;20138;-77
2022/10/07 19:19:40;;;;;;;19.73;13.77;;;10.70;99.90;;;;;;2614950;54;20556;-77
2022/10/07 19:39:13;;;;;;;15.98;12.77;;;10.70;99.90;;;;;;2612538;54;20226;-76
2022/10/07 19:45:01;;;;;;;13.50;9.60;;;10.70;99.90;;;;;;2615051;54;20423;-76
2022/10/07 19:50:55;;;;;;;20.67;13.07;;;10.60;99.90;;;;;;2615026;54;20500;-77
2022/10/07 19:56:44;;;;;;;19.50;13.50;;;10.30;99.90;;;;;;2613883;39;20765;-77
2022/10/07 20:02:31;;;;;;;23.73;11.43;;;10.30;99.90;;;;;;2613813;54;20209;-77
2022/10/07 20:08:21;;;;;;;15.47;9.67;;;10.40;99.90;;;;;;2614630;54;20126;-77
2022/10/07 20:14:09;;;;;;;16.70;9.17;;;10.70;99.90;;;;;;2614339;46;20427;-78
2022/10/07 20:16:54;;;;;;;10.00;8.27;;;10.70;99.90;;;;;;2614639;47;20458;-77
2022/10/07 20:19:21;;;;;;;11.90;7.90;;;10.50;99.90;;;;;;2613613;47;20411;-78
2022/10/07 20:25:09;;;;;;;19.67;8.70;;;10.30;99.90;;;;;;2613378;39;20517;-78
2022/10/07 20:31:03;;;;;;;16.43;9.10;;;10.20;99.90;;;;;;2614381;54;20131;-78
2022/10/07 20:36:55;;;;;;;12.30;8.57;;;10.10;99.90;;;;;;2614317;54;20399;-77
2022/10/07 20:42:42;;;;;;;19.73;11.03;;;10.00;99.90;;;;;;2615243;54;20418;-78
2022/10/07 20:48:30;;;;;;;17.07;7.70;;;10.00;99.90;;;;;;2614757;54;20211;-77
2022/10/07 20:54:20;;;;;;;16.57;8.13;;;10.30;99.90;;;;;;2616043;54;20431;-78
2022/10/07 21:00:14;;;;;;;13.38;7.57;;;10.70;99.90;;;;;;2616665;54;20372;-79
2022/10/07 21:06:05;;;;;;;13.50;7.30;;;10.20;99.90;;;;;;2616507;54;20500;-77
2022/10/07 21:11:55;;;;;;;16.73;7.90;;;10.40;99.90;;;;;;2615762;54;20538;-78
2022/10/07 21:17:44;;;;;;;13.43;7.90;;;10.40;99.90;;;;;;2617397;54;20472;-78
2022/10/07 21:23:32;;;;;;;8.52;6.90;;;10.50;99.90;;;;;;2616262;54;20916;-78
2022/10/07 21:29:20;;;;;;;9.57;8.10;;;10.70;99.90;;;;;;2616682;54;20161;-78
2022/10/07 21:35:08;;;;;;;25.83;8.07;;;10.60;99.90;;;;;;2616860;54;20178;-78
2022/10/07 21:44:18;;;;;;;12.70;7.90;;;10.60;99.90;;;;;;2616541;54;20407;-77
2022/10/07 21:50:07;;;;;;;14.60;9.30;;;10.40;99.90;;;;;;2615333;46;20647;-76
2022/10/07 21:55:54;;;;;;;23.80;8.30;;;10.20;99.90;;;;;;2615810;54;20375;-77
2022/10/07 22:05:03;;;;;;;15.67;6.90;;;10.30;99.90;;;;;;2614323;54;20387;-78
2022/10/07 22:17:24;;;;;;;14.20;7.28;;;10.30;99.90;;;;;;2614360;54;20411;-78
2022/10/07 22:23:12;;;;;;;12.23;6.50;;;10.50;99.90;;;;;;2617484;54;20391;-79
2022/10/07 22:29:00;;;;;;;9.03;5.80;;;10.70;99.90;;;;;;2616991;39;20692;-79
2022/10/07 22:44:16;;;;;;;12.33;5.13;;;10.70;99.90;;;;;;2616449;54;20419;-75
2022/10/07 22:50:05;;;;;;;8.70;5.37;;;10.70;99.90;;;;;;2615659;54;20139;-76
2022/10/07 22:55:52;;;;;;;20.40;5.83;;;10.80;99.90;;;;;;2616355;54;20958;-78
2022/10/07 23:01:40;;;;;;;9.97;5.47;;;10.70;99.90;;;;;;2615670;54;20199;-78
2022/10/07 23:07:28;;;;;;;14.80;5.67;;;10.80;99.90;;;;;;2615900;54;20603;-79
2022/10/07 23:13:16;;;;;;;11.48;6.95;;;11.00;99.90;;;;;;2616060;54;20403;-76
2022/10/07 23:19:03;;;;;;;11.33;7.10;;;11.10;99.90;;;;;;2616657;54;20169;-76
2022/10/07 23:24:51;;;;;;;12.93;5.77;;;11.20;99.90;;;;;;2614521;54;20183;-76
2022/10/07 23:30:39;;;;;;;10.17;6.17;;;11.20;99.90;;;;;;2616480;54;20138;-78
2022/10/07 23:36:28;;;;;;;10.53;5.80;;;11.40;99.90;;;;;;2615359;54;20137;-80
2022/10/07 23:39:43;;;;;;;23.50;6.17;;;11.30;99.90;;;;;;2615046;47;20427;-78
2022/10/07 23:42:09;;;;;;;6.13;4.73;;;11.40;99.90;;;;;;2615408;47;20432;-77
2022/10/07 23:47:57;;;;;;;27.50;6.80;;;11.60;99.90;;;;;;2614809;54;20751;-76
2022/10/07 23:53:46;;;;;;;6.18;5.13;;;11.50;99.90;;;;;;2615716;46;20411;-76
2022/10/07 23:59:33;;;;;;;10.93;4.60;;;11.40;99.90;;;;;;2617066;54;20434;-78
